Time;durP1;ratioP1;P1;durP2;ratioP2;P2;SDS_P1;SDS_P2;PMS_P1;PMS_P2;Temp;Humidity;BMP_temperature;BMP_pressure;BME280_temperature;BME280_humidity;BME280_pressure;Samples;Min_cycle;Max_cycle;Signal;HPM_P1;HPM_P2
2023/08/26 00:02:00;;;;;;;15.00;13.97;;;20.20;99.90;;;;;;5032664;28;20638;-80
2023/08/26 00:04:27;;;;;;;14.83;13.77;;;20.20;99.90;;;;;;5024923;28;20229;-80
2023/08/26 00:06:54;;;;;;;17.00;15.60;;;20.30;99.90;;;;;;5050429;28;20739;-80
2023/08/26 00:09:20;;;;;;;15.90;14.43;;;20.30;99.90;;;;;;5043305;28;20300;-80
2023/08/26 00:11:50;;;;;;;15.87;14.67;;;20.20;99.90;;;;;;5029201;28;20263;-80
2023/08/26 00:14:17;;;;;;;16.67;15.27;;;20.20;99.90;;;;;;5025419;28;20203;-80
2023/08/26 00:16:44;;;;;;;16.03;14.83;;;20.10;99.90;;;;;;5025384;28;20210;-80
2023/08/26 00:19:10;;;;;;;16.60;15.27;;;20.20;99.90;;;;;;5050846;28;20592;-80
2023/08/26 00:21:38;;;;;;;15.57;14.43;;;20.20;99.90;;;;;;5041688;28;20218;-80
2023/08/26 00:24:06;;;;;;;16.00;14.83;;;20.20;99.90;;;;;;5030938;28;20218;-80
2023/08/26 00:26:32;;;;;;;15.67;14.57;;;20.20;99.90;;;;;;5043115;28;20196;-80
2023/08/26 00:29:00;;;;;;;17.00;15.70;;;20.20;99.90;;;;;;5029741;28;20229;-80
2023/08/26 00:31:27;;;;;;;16.40;15.10;;;20.20;99.90;;;;;;5026014;28;20199;-80
2023/08/26 00:33:54;;;;;;;16.70;15.47;;;20.10;99.90;;;;;;5024833;28;20198;-80
2023/08/26 00:36:21;;;;;;;16.63;15.43;;;20.10;99.90;;;;;;5018228;28;20206;-80
2023/08/26 00:38:48;;;;;;;15.87;14.77;;;20.10;99.90;;;;;;5026391;28;20227;-80
2023/08/26 00:41:14;;;;;;;15.83;14.73;;;20.00;99.90;;;;;;5029385;28;20208;-80
2023/08/26 00:43:41;;;;;;;16.80;15.53;;;20.00;99.90;;;;;;5025057;28;20237;-80
2023/08/26 00:46:09;;;;;;;15.93;14.73;;;20.10;99.90;;;;;;5046297;28;20669;-80
2023/08/26 00:48:36;;;;;;;16.03;14.93;;;20.00;99.90;;;;;;5044746;28;20205;-81
2023/08/26 00:51:03;;;;;;;16.93;15.73;;;20.00;99.90;;;;;;5050468;28;20226;-80
2023/08/26 00:53:31;;;;;;;15.53;14.43;;;20.00;99.90;;;;;;5033098;28;20252;-80
2023/08/26 00:55:58;;;;;;;16.73;15.53;;;20.00;99.90;;;;;;5029918;28;20194;-80
2023/08/26 00:58:26;;;;;;;15.87;14.73;;;20.00;99.90;;;;;;5046294;28;20199;-80
2023/08/26 01:00:53;;;;;;;16.60;15.40;;;20.00;99.90;;;;;;5032707;28;20194;-80
2023/08/26 01:03:21;;;;;;;15.07;14.07;;;20.00;99.90;;;;;;5025147;28;20614;-80
2023/08/26 01:05:48;;;;;;;16.13;14.93;;;20.00;99.90;;;;;;5031791;28;20623;-80
2023/08/26 01:08:15;;;;;;;18.00;16.50;;;20.00;99.90;;;;;;5045897;28;20191;-80
2023/08/26 01:10:58;;;;;;;16.97;15.67;;;20.00;99.90;;;;;;5048038;28;20222;-80
2023/08/26 01:13:33;;;;;;;16.67;15.33;;;20.00;99.90;;;;;;5032204;28;20198;-80
2023/08/26 01:16:01;;;;;;;16.60;15.40;;;19.90;99.90;;;;;;5028039;28;20202;-80
2023/08/26 01:18:31;;;;;;;16.70;15.40;;;20.00;99.90;;;;;;5028139;28;20198;-81
2023/08/26 01:20:58;;;;;;;16.60;15.40;;;20.00;99.90;;;;;;5028603;28;20207;-80
2023/08/26 01:23:45;;;;;;;17.10;15.60;;;20.00;99.90;;;;;;5032672;28;20272;-80
2023/08/26 01:26:12;;;;;;;16.43;15.20;;;20.00;99.90;;;;;;5034159;28;20206;-80
2023/08/26 01:28:39;;;;;;;16.10;15.00;;;19.90;99.90;;;;;;5030957;28;20666;-81
2023/08/26 01:31:09;;;;;;;17.07;15.77;;;20.00;99.90;;;;;;5050783;28;20198;-80
2023/08/26 01:33:41;;;;;;;16.60;15.43;;;20.00;99.90;;;;;;5029179;28;20195;-80
2023/08/26 01:36:14;;;;;;;16.13;14.93;;;19.90;99.90;;;;;;5027858;28;20203;-80
2023/08/26 01:38:41;;;;;;;17.43;15.93;;;19.90;99.90;;;;;;5027934;28;20670;-80
2023/08/26 01:41:12;;;;;;;16.63;15.40;;;19.90;99.90;;;;;;5045141;28;20628;-81
2023/08/26 01:43:39;;;;;;;17.77;16.37;;;20.00;99.90;;;;;;5030607;28;20223;-80
2023/08/26 01:46:06;;;;;;;17.00;15.90;;;19.90;99.90;;;;;;5041161;28;20605;-80
2023/08/26 01:48:33;;;;;;;17.80;16.57;;;20.00;99.90;;;;;;5032538;28;20202;-80
2023/08/26 01:51:00;;;;;;;17.50;16.20;;;20.00;99.90;;;;;;5035713;28;20585;-80
2023/08/26 01:53:27;;;;;;;17.10;15.87;;;20.00;99.90;;;;;;5024600;28;21958;-80
2023/08/26 01:55:54;;;;;;;18.20;16.57;;;20.00;99.90;;;;;;5025604;28;20196;-81
2023/08/26 01:58:23;;;;;;;17.67;16.33;;;19.90;99.90;;;;;;5032769;28;20234;-80
2023/08/26 02:00:50;;;;;;;17.30;16.00;;;19.90;99.90;;;;;;5027692;28;20678;-80
2023/08/26 02:03:17;;;;;;;16.53;15.43;;;19.90;99.90;;;;;;5031805;28;20213;-80
2023/08/26 02:05:44;;;;;;;17.47;16.17;;;19.90;99.90;;;;;;5029337;28;20286;-80
2023/08/26 02:08:11;;;;;;;17.17;15.93;;;19.90;99.90;;;;;;5026011;28;20279;-80
2023/08/26 02:10:38;;;;;;;17.57;16.30;;;19.90;99.90;;;;;;5026935;28;20281;-80
2023/08/26 02:13:05;;;;;;;17.77;16.37;;;19.90;99.90;;;;;;5030696;28;20195;-80
2023/08/26 02:15:35;;;;;;;17.00;15.80;;;19.90;99.90;;;;;;5049793;28;20513;-80
2023/08/26 02:18:02;;;;;;;18.33;16.90;;;19.90;99.90;;;;;;5046442;28;20468;-81
2023/08/26 02:20:29;;;;;;;17.40;16.10;;;19.90;99.90;;;;;;5035340;28;20218;-80
2023/08/26 02:22:56;;;;;;;18.00;16.63;;;19.90;99.90;;;;;;5028755;28;20202;-81
2023/08/26 02:25:23;;;;;;;17.00;15.80;;;19.80;99.90;;;;;;5034679;28;20230;-80
2023/08/26 02:27:51;;;;;;;17.10;15.77;;;19.90;99.90;;;;;;5030047;28;20270;-81
2023/08/26 02:30:18;;;;;;;17.30;16.20;;;19.80;99.90;;;;;;5052988;28;20776;-80
2023/08/26 02:32:46;;;;;;;16.33;15.20;;;19.80;99.90;;;;;;5042389;28;20214;-80
2023/08/26 02:35:13;;;;;;;17.13;15.77;;;19.80;99.90;;;;;;5027370;28;20202;-80
2023/08/26 02:37:40;;;;;;;17.90;16.50;;;19.80;99.90;;;;;;5027747;28;20195;-80
2023/08/26 02:40:08;;;;;;;17.50;16.13;;;19.80;99.90;;;;;;5055370;28;20219;-80
2023/08/26 02:42:35;;;;;;;16.87;15.77;;;19.80;99.90;;;;;;5040166;28;20669;-80
2023/08/26 02:45:04;;;;;;;17.97;16.57;;;19.80;99.90;;;;;;5031448;28;20762;-80
2023/08/26 02:47:31;;;;;;;16.80;15.60;;;19.80;99.90;;;;;;5026383;28;20711;-80
2023/08/26 02:50:01;;;;;;;16.20;15.10;;;19.80;99.90;;;;;;5027617;28;20306;-80
2023/08/26 02:52:28;;;;;;;17.13;15.93;;;19.80;99.90;;;;;;5033961;28;20326;-80
2023/08/26 02:54:55;;;;;;;16.90;15.60;;;19.70;99.90;;;;;;5033239;28;20202;-80
2023/08/26 02:57:22;;;;;;;16.57;15.37;;;19.70;99.90;;;;;;5026072;28;20226;-80
2023/08/26 02:59:50;;;;;;;16.97;15.77;;;19.70;99.90;;;;;;5030412;28;20232;-80
2023/08/26 03:02:19;;;;;;;16.70;15.60;;;19.70;99.90;;;;;;5044007;28;20221;-80
2023/08/26 03:04:46;;;;;;;16.37;15.17;;;19.70;99.90;;;;;;5025827;28;20707;-80
2023/08/26 03:07:15;;;;;;;16.40;15.23;;;19.60;99.90;;;;;;5033862;28;20730;-80
2023/08/26 03:09:42;;;;;;;15.97;14.80;;;19.60;99.90;;;;;;5035329;28;20225;-83
2023/08/26 03:12:09;;;;;;;15.90;14.80;;;19.60;99.90;;;;;;5030955;28;20200;-79
2023/08/26 03:14:36;;;;;;;16.40;15.20;;;19.60;99.90;;;;;;5026558;28;20652;-79
2023/08/26 03:17:03;;;;;;;15.90;14.90;;;19.50;99.90;;;;;;5025766;28;20207;-78
2023/08/26 03:19:30;;;;;;;15.07;14.17;;;19.50;99.90;;;;;;5030276;28;20234;-80
2023/08/26 03:21:57;;;;;;;15.37;14.37;;;19.40;99.90;;;;;;5047801;28;20226;-82
2023/08/26 03:24:27;;;;;;;15.00;14.10;;;19.40;99.90;;;;;;5031633;28;20304;-78
2023/08/26 03:26:54;;;;;;;14.87;13.97;;;19.30;99.90;;;;;;5028499;28;20203;-77
2023/08/26 03:29:21;;;;;;;15.60;14.50;;;19.30;99.90;;;;;;5051912;28;20339;-78
2023/08/26 03:31:49;;;;;;;15.23;14.33;;;19.30;99.90;;;;;;5034793;28;20206;-80
2023/08/26 03:34:18;;;;;;;16.10;15.00;;;19.30;99.90;;;;;;5034137;28;20390;-78
2023/08/26 03:36:45;;;;;;;15.33;14.30;;;19.30;99.90;;;;;;5033729;28;20198;-79
2023/08/26 03:39:12;;;;;;;15.27;14.07;;;19.30;99.90;;;;;;5031110;28;20610;-79
2023/08/26 03:41:40;;;;;;;15.10;14.10;;;19.30;99.90;;;;;;5047365;28;20204;-79
2023/08/26 03:44:07;;;;;;;15.23;14.03;;;19.30;99.90;;;;;;5040257;28;20222;-78
2023/08/26 03:46:34;;;;;;;15.10;14.10;;;19.40;99.90;;;;;;5035968;28;20207;-78
2023/08/26 03:49:01;;;;;;;15.20;14.20;;;19.40;99.90;;;;;;5054376;28;20239;-79
2023/08/26 03:51:29;;;;;;;15.50;14.50;;;19.40;99.90;;;;;;5041643;28;20202;-78
2023/08/26 03:53:56;;;;;;;14.60;13.70;;;19.40;99.90;;;;;;5046607;28;20204;-78
2023/08/26 03:56:23;;;;;;;14.80;13.90;;;19.40;99.90;;;;;;5046870;28;20661;-78
2023/08/26 03:58:56;;;;;;;14.90;14.00;;;19.40;99.90;;;;;;5027617;28;20222;-79
2023/08/26 04:01:23;;;;;;;16.03;15.13;;;19.40;99.90;;;;;;5056194;28;20697;-79
2023/08/26 04:03:51;;;;;;;16.00;15.00;;;19.40;99.90;;;;;;5042513;28;20669;-79
2023/08/26 04:06:18;;;;;;;15.40;14.50;;;19.40;99.90;;;;;;5037596;28;20619;-79
2023/08/26 04:08:46;;;;;;;15.33;14.43;;;19.40;99.90;;;;;;5039043;28;20218;-79
2023/08/26 04:11:15;;;;;;;15.60;14.70;;;19.40;99.90;;;;;;5042908;28;20241;-80
2023/08/26 04:13:41;;;;;;;15.03;14.13;;;19.40;99.90;;;;;;5039016;28;20194;-79
2023/08/26 04:16:10;;;;;;;15.37;14.20;;;19.40;99.90;;;;;;5030613;28;20201;-79
2023/08/26 04:18:37;;;;;;;14.90;14.00;;;19.40;99.90;;;;;;5032961;28;20224;-81
2023/08/26 04:21:04;;;;;;;16.43;15.43;;;19.40;99.90;;;;;;5035282;28;20198;-82
2023/08/26 04:23:31;;;;;;;15.80;14.80;;;19.40;99.90;;;;;;5033195;28;20225;-82
2023/08/26 04:26:00;;;;;;;16.10;15.00;;;19.40;99.90;;;;;;5032583;28;20217;-82
2023/08/26 04:28:27;;;;;;;15.43;14.53;;;19.40;99.90;;;;;;5027985;28;20206;-82
2023/08/26 04:30:54;;;;;;;16.37;15.37;;;19.40;99.90;;;;;;5032328;28;20202;-81
2023/08/26 04:33:22;;;;;;;15.53;14.63;;;19.40;99.90;;;;;;5035556;28;20214;-81
2023/08/26 04:35:49;;;;;;;15.30;14.40;;;19.40;99.90;;;;;;5035864;28;20262;-80
2023/08/26 04:38:15;;;;;;;16.03;14.93;;;19.40;99.90;;;;;;5033660;28;20712;-81
2023/08/26 04:40:43;;;;;;;16.10;15.00;;;19.40;99.90;;;;;;5035902;28;20219;-80
2023/08/26 04:43:10;;;;;;;15.70;14.70;;;19.40;99.90;;;;;;5034344;28;20234;-78
2023/08/26 04:45:38;;;;;;;15.93;14.93;;;19.40;99.90;;;;;;5050452;28;20213;-82
2023/08/26 04:48:06;;;;;;;15.20;14.17;;;19.40;99.90;;;;;;5034554;28;20205;-80
2023/08/26 04:50:36;;;;;;;16.33;15.33;;;19.40;99.90;;;;;;5035898;28;20234;-80
2023/08/26 04:53:11;;;;;;;16.40;15.33;;;19.40;99.90;;;;;;5032552;28;20209;-84
2023/08/26 04:55:38;;;;;;;16.70;15.60;;;19.40;99.90;;;;;;5035216;28;20194;-81
2023/08/26 04:58:08;;;;;;;16.37;15.37;;;19.40;99.90;;;;;;5033511;28;20670;-81
2023/08/26 05:00:36;;;;;;;16.77;15.67;;;19.40;99.90;;;;;;5036204;28;20298;-80
2023/08/26 05:03:04;;;;;;;16.43;15.43;;;19.40;99.90;;;;;;5035563;28;20199;-80
2023/08/26 05:05:31;;;;;;;17.00;15.90;;;19.40;99.90;;;;;;5033067;28;20260;-81
2023/08/26 05:07:59;;;;;;;16.40;15.40;;;19.40;99.90;;;;;;5037059;28;20569;-81
2023/08/26 05:10:26;;;;;;;16.30;15.20;;;19.40;99.90;;;;;;5035735;28;20230;-80
2023/08/26 05:12:56;;;;;;;16.53;15.43;;;19.50;99.90;;;;;;5045390;28;20192;-84
2023/08/26 05:15:23;;;;;;;16.53;15.53;;;19.50;99.90;;;;;;5051849;28;20214;-81
2023/08/26 05:17:50;;;;;;;16.53;15.50;;;19.40;99.90;;;;;;5030660;28;20198;-83
2023/08/26 05:20:17;;;;;;;17.50;16.10;;;19.50;99.90;;;;;;5031655;28;20309;-80
2023/08/26 05:22:43;;;;;;;15.93;14.93;;;19.50;99.90;;;;;;5031947;28;20256;-79
2023/08/26 05:25:12;;;;;;;15.97;14.97;;;19.50;99.90;;;;;;5030997;28;20283;-79
2023/08/26 05:27:38;;;;;;;17.03;15.93;;;19.50;99.90;;;;;;5038998;28;20199;-79
2023/08/26 05:30:08;;;;;;;16.50;15.40;;;19.50;99.90;;;;;;5032603;28;20226;-79
2023/08/26 05:32:43;;;;;;;16.73;15.63;;;19.50;99.90;;;;;;5033290;28;20198;-78
2023/08/26 05:35:10;;;;;;;16.57;15.50;;;19.40;99.90;;;;;;5034318;28;20195;-80
2023/08/26 05:37:44;;;;;;;16.10;15.10;;;19.50;99.90;;;;;;5048988;28;20191;-83
2023/08/26 05:40:14;;;;;;;16.13;15.03;;;19.50;99.90;;;;;;5034638;28;20247;-82
2023/08/26 05:42:42;;;;;;;16.40;15.30;;;19.60;99.90;;;;;;5035820;28;20195;-79
2023/08/26 05:45:10;;;;;;;15.05;14.05;;;19.60;99.90;;;;;;5044435;28;20440;-78
2023/08/26 05:47:40;;;;;;;15.00;14.10;;;19.70;99.90;;;;;;5033692;28;20435;-81
2023/08/26 05:50:07;;;;;;;15.00;14.10;;;19.70;99.90;;;;;;5034652;28;20249;-79
2023/08/26 05:52:34;;;;;;;7.27;6.67;;;19.70;99.90;;;;;;5033427;28;20198;-80
2023/08/26 05:55:02;;;;;;;6.23;5.73;;;19.90;99.90;;;;;;5042765;28;20191;-77
2023/08/26 05:57:30;;;;;;;6.87;6.17;;;19.90;99.90;;;;;;5041928;28;20201;-79
2023/08/26 05:59:57;;;;;;;8.33;7.73;;;20.10;99.90;;;;;;5034732;28;20250;-79
2023/08/26 06:02:24;;;;;;;7.80;7.10;;;20.20;99.90;;;;;;5029070;28;20218;-80
2023/08/26 06:04:51;;;;;;;13.10;12.10;;;20.30;99.90;;;;;;5028257;28;20215;-79
2023/08/26 06:07:19;;;;;;;13.00;12.10;;;20.30;99.90;;;;;;5046791;28;20225;-81
2023/08/26 06:09:47;;;;;;;13.03;12.13;;;20.30;99.90;;;;;;5044764;28;20222;-84
2023/08/26 06:12:14;;;;;;;12.67;11.77;;;20.40;99.90;;;;;;5040991;28;20214;-77
2023/08/26 06:14:42;;;;;;;12.47;11.67;;;20.40;99.90;;;;;;5033073;28;20192;-77
2023/08/26 06:17:09;;;;;;;11.80;11.00;;;20.50;99.90;;;;;;5052056;28;20195;-77
2023/08/26 06:19:36;;;;;;;11.40;10.60;;;20.60;99.90;;;;;;5052567;28;20211;-77
2023/08/26 06:22:03;;;;;;;7.90;7.20;;;20.70;99.90;;;;;;5033514;28;20428;-77
2023/08/26 06:24:30;;;;;;;6.93;6.32;;;20.80;99.90;;;;;;5026991;28;20828;-77
2023/08/26 06:26:57;;;;;;;8.23;7.60;;;20.90;99.90;;;;;;5050960;28;20530;-77
2023/08/26 06:29:25;;;;;;;12.27;11.47;;;21.20;99.90;;;;;;5036115;28;20711;-78
2023/08/26 06:31:53;;;;;;;13.13;12.13;;;21.30;99.90;;;;;;5033816;28;20253;-78
2023/08/26 06:34:20;;;;;;;7.20;6.60;;;21.40;99.90;;;;;;5033036;28;20210;-77
2023/08/26 06:36:47;;;;;;;6.07;5.47;;;21.50;99.90;;;;;;5033667;28;20226;-77
2023/08/26 06:39:14;;;;;;;6.47;5.97;;;21.70;99.90;;;;;;5033418;28;20219;-78
2023/08/26 06:41:41;;;;;;;6.50;5.67;;;21.80;99.90;;;;;;5033749;28;20191;-78
2023/08/26 06:44:08;;;;;;;12.10;11.20;;;21.70;99.90;;;;;;5033007;28;20202;-78
2023/08/26 06:46:35;;;;;;;9.57;8.83;;;21.80;99.90;;;;;;5033824;28;20223;-77
2023/08/26 06:49:06;;;;;;;6.70;6.10;;;21.80;99.90;;;;;;5048308;28;20216;-81
2023/08/26 06:51:32;;;;;;;10.47;9.53;;;21.90;99.90;;;;;;5033154;28;20203;-82
2023/08/26 06:53:59;;;;;;;11.20;10.40;;;22.00;99.90;;;;;;5033408;28;20254;-80
2023/08/26 06:56:27;;;;;;;11.57;10.70;;;22.00;99.90;;;;;;5037780;28;20192;-82
2023/08/26 06:58:53;;;;;;;9.67;8.77;;;22.00;99.90;;;;;;5035106;28;20228;-83
2023/08/26 07:01:20;;;;;;;10.57;9.80;;;21.90;99.90;;;;;;5032407;28;20272;-81
2023/08/26 07:03:47;;;;;;;10.03;9.33;;;21.90;99.90;;;;;;5032340;28;20207;-80
2023/08/26 07:06:15;;;;;;;10.30;9.60;;;22.10;99.90;;;;;;5059529;28;20222;-77
2023/08/26 07:08:42;;;;;;;11.27;10.33;;;22.30;99.90;;;;;;5046245;28;20206;-77
2023/08/26 07:11:09;;;;;;;8.00;6.73;;;22.30;99.90;;;;;;5059085;28;20194;-78
2023/08/26 07:13:36;;;;;;;9.13;8.33;;;22.10;99.90;;;;;;5058218;28;20472;-77
2023/08/26 07:16:03;;;;;;;10.53;9.47;;;22.10;99.90;;;;;;5062694;28;20439;-78
2023/08/26 07:18:30;;;;;;;10.60;9.77;;;21.90;99.90;;;;;;5055057;28;20200;-78
2023/08/26 07:20:57;;;;;;;12.03;11.23;;;21.90;99.90;;;;;;5038357;28;20253;-77
2023/08/26 07:23:25;;;;;;;10.70;9.90;;;21.80;99.90;;;;;;5051956;28;20697;-78
2023/08/26 07:25:52;;;;;;;8.60;8.00;;;21.70;99.90;;;;;;5054698;28;20203;-78
2023/08/26 07:28:19;;;;;;;7.90;7.30;;;21.60;99.90;;;;;;5034225;28;20247;-80
2023/08/26 07:30:46;;;;;;;8.90;7.80;;;21.60;99.90;;;;;;5034182;28;20601;-81
2023/08/26 07:33:12;;;;;;;8.33;7.63;;;21.70;99.90;;;;;;5037507;28;20249;-78
2023/08/26 07:35:39;;;;;;;9.07;8.27;;;21.80;99.90;;;;;;5047437;28;20199;-78
2023/08/26 07:38:06;;;;;;;5.60;4.80;;;22.20;99.90;;;;;;5039133;28;20704;-81
2023/08/26 07:40:34;;;;;;;10.47;9.77;;;22.70;99.90;;;;;;5028686;28;20232;-81
2023/08/26 07:43:01;;;;;;;8.70;8.00;;;22.90;99.90;;;;;;5055986;28;20604;-82
2023/08/26 07:45:28;;;;;;;10.23;9.53;;;23.10;99.90;;;;;;5054878;28;20345;-82
2023/08/26 07:47:57;;;;;;;10.33;9.50;;;23.30;99.90;;;;;;5034406;28;20279;-82
2023/08/26 07:50:24;;;;;;;7.13;4.90;;;23.30;99.90;;;;;;5053219;28;20219;-82
2023/08/26 07:52:53;;;;;;;7.13;6.43;;;23.70;99.90;;;;;;5036199;28;20206;-82
2023/08/26 07:55:22;;;;;;;9.80;9.00;;;24.30;99.90;;;;;;5055445;28;20205;-82
2023/08/26 07:57:51;;;;;;;8.57;7.77;;;24.90;99.90;;;;;;5034537;28;20195;-81
2023/08/26 08:00:19;;;;;;;6.30;4.57;;;24.90;99.90;;;;;;5052129;28;20235;-79
2023/08/26 08:02:46;;;;;;;5.03;4.50;;;24.80;99.90;;;;;;5048820;28;20199;-85
2023/08/26 08:05:16;;;;;;;5.37;4.83;;;25.10;99.90;;;;;;5040263;28;20209;-84
2023/08/26 08:07:43;;;;;;;5.73;4.37;;;25.50;99.90;;;;;;5054573;28;20231;-83
2023/08/26 08:10:11;;;;;;;7.20;6.50;;;25.30;99.90;;;;;;5055622;28;20215;-81
2023/08/26 08:12:38;;;;;;;8.27;7.47;;;25.30;99.90;;;;;;5053945;28;20278;-81
2023/08/26 08:15:10;;;;;;;9.07;8.33;;;25.10;99.90;;;;;;5055040;28;20187;-83
2023/08/26 08:17:38;;;;;;;10.43;7.90;;;24.80;99.90;;;;;;5050822;28;20199;-85
2023/08/26 08:20:06;;;;;;;12.37;8.60;;;24.60;99.90;;;;;;5051309;28;20632;-79
2023/08/26 08:22:41;;;;;;;8.10;6.90;;;24.40;99.90;;;;;;5057172;28;20207;-84
2023/08/26 08:25:09;;;;;;;6.50;4.40;;;24.10;99.90;;;;;;5056056;28;20194;-81
2023/08/26 08:27:37;;;;;;;6.00;4.37;;;23.80;99.90;;;;;;5055425;28;20214;-80
2023/08/26 08:30:14;;;;;;;8.17;7.47;;;23.60;99.90;;;;;;5036503;28;20299;-84
2023/08/26 08:32:41;;;;;;;5.47;3.90;;;23.30;99.90;;;;;;5052157;28;20203;-80
2023/08/26 08:35:09;;;;;;;8.17;6.90;;;23.10;99.90;;;;;;5041634;28;20204;-82
2023/08/26 08:37:36;;;;;;;10.33;9.63;;;22.90;99.90;;;;;;5057240;28;20198;-79
2023/08/26 08:40:03;;;;;;;7.47;4.67;;;22.80;99.90;;;;;;5038005;28;20218;-80
2023/08/26 08:42:34;;;;;;;7.07;5.60;;;22.60;99.90;;;;;;5058197;28;20582;-78
2023/08/26 08:45:02;;;;;;;9.90;9.20;;;22.60;99.90;;;;;;5033312;28;20238;-79
2023/08/26 08:47:32;;;;;;;7.03;6.33;;;22.50;99.90;;;;;;5058712;28;20289;-82
2023/08/26 08:50:00;;;;;;;6.87;6.23;;;22.40;99.90;;;;;;5058512;28;20222;-78
2023/08/26 08:52:28;;;;;;;5.63;5.07;;;22.50;99.90;;;;;;5060085;28;20207;-79
2023/08/26 08:54:55;;;;;;;5.70;4.27;;;22.60;99.90;;;;;;5041523;28;20221;-79
2023/08/26 08:57:24;;;;;;;5.93;4.50;;;22.70;99.90;;;;;;5061064;28;20195;-79
2023/08/26 08:59:53;;;;;;;4.70;3.80;;;22.80;99.90;;;;;;5056956;28;20306;-79
2023/08/26 09:02:21;;;;;;;6.17;4.10;;;22.90;99.90;;;;;;5034013;28;20241;-82
2023/08/26 09:05:15;;;;;;;6.20;4.27;;;23.00;99.90;;;;;;5053390;28;20215;-80
2023/08/26 09:07:43;;;;;;;4.50;3.97;;;23.10;99.90;;;;;;5041526;28;20230;-79
2023/08/26 09:10:12;;;;;;;6.93;4.20;;;23.20;99.90;;;;;;5051542;28;20211;-80
2023/08/26 09:12:39;;;;;;;5.37;3.93;;;23.40;99.90;;;;;;5055072;28;20194;-79
2023/08/26 09:15:07;;;;;;;5.07;3.90;;;23.50;99.90;;;;;;5042661;28;20214;-80
2023/08/26 09:17:35;;;;;;;10.10;9.10;;;23.50;99.90;;;;;;5055735;28;20270;-78
2023/08/26 09:20:05;;;;;;;4.70;3.57;;;23.50;99.90;;;;;;5060576;28;20226;-79
2023/08/26 09:22:33;;;;;;;4.73;4.23;;;23.70;99.90;;;;;;5041124;28;20195;-81
2023/08/26 09:25:01;;;;;;;9.33;6.87;;;23.70;99.90;;;;;;5040683;28;21116;-78
2023/08/26 09:27:28;;;;;;;6.50;4.13;;;23.90;99.90;;;;;;5039286;28;20211;-79
2023/08/26 09:29:56;;;;;;;8.33;7.10;;;24.10;99.90;;;;;;5059285;28;20422;-79
2023/08/26 09:32:33;;;;;;;7.67;6.87;;;24.30;99.90;;;;;;5062120;28;20203;-79
2023/08/26 09:35:10;;;;;;;6.60;4.10;;;24.80;99.90;;;;;;5046842;28;20202;-79
2023/08/26 09:37:40;;;;;;;8.67;7.77;;;25.30;99.90;;;;;;5041610;28;20203;-79
2023/08/26 09:40:08;;;;;;;4.37;3.70;;;25.60;99.90;;;;;;5049735;28;20709;-79
2023/08/26 09:42:35;;;;;;;8.03;6.13;;;25.60;99.90;;;;;;5056561;28;20195;-80
2023/08/26 09:45:02;;;;;;;7.90;7.10;;;25.60;99.90;;;;;;5033826;28;20202;-79
2023/08/26 09:47:29;;;;;;;8.50;7.90;;;26.00;99.90;;;;;;5039285;28;20262;-80
2023/08/26 09:49:56;;;;;;;8.20;7.50;;;26.40;99.90;;;;;;5040575;28;20241;-80
2023/08/26 09:52:24;;;;;;;7.53;6.70;;;26.60;99.90;;;;;;5058259;28;20203;-80
2023/08/26 09:54:53;;;;;;;9.80;8.00;;;26.20;99.90;;;;;;5052642;28;20210;-80
2023/08/26 09:57:20;;;;;;;8.47;7.83;;;25.90;99.90;;;;;;5039073;28;20670;-80
2023/08/26 09:59:47;;;;;;;7.83;3.73;;;25.70;99.90;;;;;;5057401;28;20634;-79
2023/08/26 10:02:20;;;;;;;6.70;3.73;;;25.70;99.90;;;;;;5033103;28;20207;-80
2023/08/26 10:04:48;;;;;;;5.50;3.60;;;25.80;99.90;;;;;;5034445;28;20290;-80
2023/08/26 10:07:15;;;;;;;5.03;3.97;;;25.70;99.90;;;;;;5036809;28;20232;-81
2023/08/26 10:09:50;;;;;;;7.20;3.70;;;25.70;99.90;;;;;;5037292;28;20223;-79
2023/08/26 10:12:22;;;;;;;4.60;3.60;;;25.70;99.90;;;;;;5053937;28;20202;-80
2023/08/26 10:14:51;;;;;;;8.67;7.87;;;25.60;99.90;;;;;;5058111;28;20253;-80
2023/08/26 10:17:21;;;;;;;4.23;3.60;;;25.60;99.90;;;;;;5030960;28;20260;-79
2023/08/26 10:19:48;;;;;;;4.67;4.27;;;25.50;99.90;;;;;;5037607;28;20767;-80
2023/08/26 10:22:15;;;;;;;6.27;3.97;;;25.20;99.90;;;;;;5051954;28;20195;-79
2023/08/26 10:24:46;;;;;;;8.17;7.53;;;25.10;99.90;;;;;;5036558;28;20191;-83
2023/08/26 10:27:13;;;;;;;8.37;7.67;;;25.00;99.90;;;;;;5032593;28;20709;-79
2023/08/26 10:29:42;;;;;;;8.90;8.17;;;24.90;99.90;;;;;;5040358;28;20268;-80
2023/08/26 10:32:17;;;;;;;10.10;7.30;;;24.90;99.90;;;;;;5036182;28;20732;-81
2023/08/26 10:34:53;;;;;;;8.70;8.00;;;24.90;99.90;;;;;;5043179;28;20199;-79
2023/08/26 10:37:20;;;;;;;7.83;7.23;;;24.80;99.90;;;;;;5039004;28;20266;-81
2023/08/26 10:39:47;;;;;;;5.70;3.80;;;24.70;99.90;;;;;;5056192;28;20219;-80
2023/08/26 10:42:16;;;;;;;4.37;3.40;;;24.90;99.90;;;;;;5035412;28;20218;-80
2023/08/26 10:44:47;;;;;;;6.37;3.60;;;25.30;99.90;;;;;;5047670;28;20199;-80
2023/08/26 10:47:34;;;;;;;6.63;4.10;;;25.50;99.90;;;;;;5055046;28;20273;-80
2023/08/26 10:50:23;;;;;;;7.03;4.30;;;25.70;99.90;;;;;;5054157;28;20283;-81
2023/08/26 10:52:52;;;;;;;6.30;3.70;;;25.70;99.90;;;;;;5047563;28;20204;-80
2023/08/26 10:55:23;;;;;;;5.37;3.70;;;25.70;99.90;;;;;;5026194;28;20258;-81
2023/08/26 10:58:09;;;;;;;8.67;4.23;;;25.70;99.90;;;;;;5036839;28;20191;-79
2023/08/26 11:00:39;;;;;;;4.37;3.57;;;25.80;99.90;;;;;;5048461;28;20643;-79
2023/08/26 11:03:08;;;;;;;4.87;3.73;;;25.90;99.90;;;;;;5057201;28;20666;-80
2023/08/26 11:05:37;;;;;;;6.13;3.67;;;25.70;99.90;;;;;;5057480;28;20202;-79
2023/08/26 11:08:05;;;;;;;5.90;3.57;;;26.00;99.90;;;;;;5040449;28;20211;-79
2023/08/26 11:10:33;;;;;;;9.73;8.13;;;25.80;99.90;;;;;;5053052;28;20288;-78
2023/08/26 11:13:00;;;;;;;8.23;7.43;;;25.50;99.90;;;;;;5056523;28;20222;-79
2023/08/26 11:15:31;;;;;;;6.00;5.10;;;25.30;99.90;;;;;;5035602;28;20200;-79
2023/08/26 11:17:59;;;;;;;6.33;4.00;;;24.90;99.90;;;;;;5050543;28;20207;-79
2023/08/26 11:20:27;;;;;;;6.97;5.73;;;24.80;99.90;;;;;;5041587;28;20227;-79
2023/08/26 11:22:55;;;;;;;6.67;5.97;;;24.80;99.90;;;;;;5041948;28;20195;-78
2023/08/26 11:25:22;;;;;;;6.77;6.27;;;24.80;99.90;;;;;;5057226;28;20214;-80
2023/08/26 11:27:49;;;;;;;6.10;5.57;;;25.00;99.90;;;;;;5059678;28;20716;-79
2023/08/26 11:30:16;;;;;;;7.87;6.93;;;25.30;99.90;;;;;;5059382;28;20253;-79
2023/08/26 11:32:42;;;;;;;7.70;7.00;;;25.50;99.90;;;;;;5040871;28;20686;-80
2023/08/26 11:35:11;;;;;;;8.20;7.40;;;25.50;99.90;;;;;;5058028;28;20191;-79
2023/08/26 11:37:41;;;;;;;7.37;6.67;;;25.40;99.90;;;;;;5042375;28;20579;-79
2023/08/26 11:40:09;;;;;;;7.43;6.43;;;25.30;99.90;;;;;;5040360;28;20286;-79
2023/08/26 11:42:37;;;;;;;8.53;7.27;;;25.20;99.90;;;;;;5040411;28;20203;-79
2023/08/26 11:45:04;;;;;;;8.97;8.10;;;25.00;99.90;;;;;;5034131;28;20246;-79
2023/08/26 11:47:31;;;;;;;9.20;8.60;;;24.80;99.90;;;;;;5059608;28;20212;-79
2023/08/26 11:49:58;;;;;;;5.77;4.73;;;24.60;99.90;;;;;;5055183;28;20568;-79
2023/08/26 11:52:33;;;;;;;7.40;6.80;;;24.40;99.90;;;;;;5056096;28;20613;-80
2023/08/26 11:55:01;;;;;;;7.77;6.03;;;24.20;99.90;;;;;;5039698;28;20202;-79
2023/08/26 11:57:28;;;;;;;8.47;5.40;;;24.00;99.90;;;;;;5038250;28;20207;-79
2023/08/26 12:00:06;;;;;;;6.13;5.53;;;23.80;99.90;;;;;;5044101;28;20218;-80
2023/08/26 12:02:41;;;;;;;9.23;8.37;;;23.80;99.90;;;;;;5048601;28;20286;-80
2023/08/26 12:19:48;;;;;;;9.53;8.63;;;22.80;99.90;;;;;;5503057;23;20206;-82
2023/08/26 12:22:16;;;;;;;9.63;8.83;;;22.50;99.90;;;;;;5009912;28;20197;-81
2023/08/26 12:24:45;;;;;;;9.07;8.17;;;22.40;99.90;;;;;;5010292;28;20195;-80
2023/08/26 12:27:13;;;;;;;8.70;7.87;;;22.20;99.90;;;;;;5027919;28;20213;-80
2023/08/26 12:29:40;;;;;;;9.07;8.10;;;22.10;99.90;;;;;;5011010;28;20220;-80
2023/08/26 12:32:07;;;;;;;6.47;4.93;;;22.10;99.90;;;;;;4999251;28;20189;-80
2023/08/26 12:34:34;;;;;;;8.60;7.67;;;22.10;99.90;;;;;;5008211;28;20748;-80
2023/08/26 12:37:02;;;;;;;8.50;7.70;;;22.20;99.90;;;;;;5007916;28;20601;-80
2023/08/26 12:39:29;;;;;;;9.03;8.10;;;22.20;99.90;;;;;;5008536;28;20218;-79
2023/08/26 12:41:56;;;;;;;7.47;6.73;;;22.00;99.90;;;;;;5004376;28;20200;-79
2023/08/26 12:44:23;;;;;;;5.87;4.67;;;21.80;99.90;;;;;;5007462;28;20201;-79
2023/08/26 12:46:51;;;;;;;5.50;4.60;;;21.70;99.90;;;;;;5003464;28;20217;-80
2023/08/26 12:49:27;;;;;;;7.30;6.10;;;21.70;99.90;;;;;;5005653;28;20657;-79
2023/08/26 12:51:54;;;;;;;8.90;8.10;;;21.60;99.90;;;;;;5008508;28;20197;-79
2023/08/26 12:54:26;;;;;;;7.33;6.53;;;21.60;99.90;;;;;;5014042;28;20196;-80
2023/08/26 12:56:53;;;;;;;11.33;10.40;;;21.60;99.90;;;;;;5012412;28;20782;-80